Time;durP1;ratioP1;P1;durP2;ratioP2;P2;SDS_P1;SDS_P2;PMS_P1;PMS_P2;Temp;Humidity;BMP_temperature;BMP_pressure;BME280_temperature;BME280_humidity;BME280_pressure;Samples;Min_cycle;Max_cycle;Signal;HPM_P1;HPM_P2
2024/03/18 00:00:14;;;;;;;32.25;30.15;;;;;;;8.40;100.00;101107.66;5074232;28;20759;-70
2024/03/18 00:02:42;;;;;;;31.77;29.77;;;;;;;8.42;100.00;101113.59;5079695;28;20040;-69
2024/03/18 00:05:12;;;;;;;31.75;29.75;;;;;;;8.79;100.00;101103.09;5081595;28;20060;-69
2024/03/18 00:07:39;;;;;;;33.33;31.02;;;;;;;8.11;100.00;101112.88;5077934;28;20048;-71
2024/03/18 00:10:11;;;;;;;32.00;29.85;;;;;;;8.08;100.00;101110.59;5085350;28;20068;-68
2024/03/18 00:12:38;;;;;;;33.22;31.02;;;;;;;8.01;100.00;101116.59;5085141;28;20048;-70
2024/03/18 00:15:07;;;;;;;32.58;30.38;;;;;;;8.13;100.00;101103.78;5076935;28;20113;-70
2024/03/18 00:17:36;;;;;;;30.85;28.85;;;;;;;8.01;100.00;101105.22;5083557;28;20164;-70
2024/03/18 00:20:07;;;;;;;30.88;28.90;;;;;;;8.02;100.00;101096.28;5079656;28;20056;-70
2024/03/18 00:22:34;;;;;;;32.05;29.95;;;;;;;7.92;100.00;101091.22;5079624;28;20051;-70
2024/03/18 00:25:01;;;;;;;31.90;29.10;;;;;;;7.84;100.00;101087.84;5079810;28;20125;-69
2024/03/18 00:27:28;;;;;;;31.85;29.75;;;;;;;7.74;100.00;101086.25;5081273;28;20143;-71
2024/03/18 00:29:56;;;;;;;30.60;28.50;;;;;;;7.68;100.00;101080.88;5067177;28;20048;-70
2024/03/18 00:32:24;;;;;;;31.73;29.58;;;;;;;7.66;100.00;101080.25;5069599;28;20497;-69
2024/03/18 00:34:52;;;;;;;31.30;29.20;;;;;;;7.77;100.00;101082.44;5079001;28;20068;-70
2024/03/18 00:37:21;;;;;;;30.58;28.63;;;;;;;7.60;100.00;101079.13;5075156;28;20055;-68
2024/03/18 00:39:49;;;;;;;31.95;29.85;;;;;;;7.97;100.00;101072.19;5083371;28;20063;-70
2024/03/18 00:42:16;;;;;;;32.92;30.73;;;;;;;7.67;100.00;101073.94;5078393;28;20113;-71
2024/03/18 00:44:43;;;;;;;30.60;28.50;;;;;;;7.61;100.00;101066.72;5081179;28;20121;-70
2024/03/18 00:47:10;;;;;;;29.73;27.73;;;;;;;7.74;100.00;101064.28;5073644;28;20055;-69
2024/03/18 00:49:38;;;;;;;30.55;28.55;;;;;;;7.68;100.00;101057.88;5074241;28;20114;-70
2024/03/18 00:52:08;;;;;;;31.30;29.02;;;;;;;7.86;100.00;101051.47;5084053;28;20052;-70
2024/03/18 00:54:37;;;;;;;33.28;31.17;;;;;;;7.72;100.00;101053.91;5087229;28;20681;-69
2024/03/18 00:57:04;;;;;;;31.05;29.08;;;;;;;7.67;100.00;101050.16;5090119;28;20499;-70
2024/03/18 00:59:30;;;;;;;32.83;30.83;;;;;;;8.30;100.00;101050.69;5089761;28;20052;-70
2024/03/18 01:01:58;;;;;;;30.92;29.13;;;;;;;7.63;100.00;101049.69;5081694;28;20511;-68
2024/03/18 01:04:25;;;;;;;30.80;28.88;;;;;;;7.79;100.00;101036.31;5085826;28;20090;-68
2024/03/18 01:06:52;;;;;;;29.45;27.65;;;;;;;7.87;100.00;101040.72;5080756;28;20060;-68
2024/03/18 01:09:20;;;;;;;31.30;29.30;;;;;;;8.39;100.00;101036.41;5085445;28;20511;-69
2024/03/18 01:11:49;;;;;;;31.15;29.13;;;;;;;7.80;100.00;101035.31;5085010;28;20071;-68
2024/03/18 01:14:16;;;;;;;30.58;28.65;;;;;;;8.26;100.00;101037.81;5087184;28;20455;-68
2024/03/18 01:16:43;;;;;;;31.80;29.85;;;;;;;7.92;100.00;101034.88;5077782;28;20059;-68
2024/03/18 01:19:10;;;;;;;32.08;29.90;;;;;;;7.66;100.00;101033.47;5078405;28;20052;-68
2024/03/18 01:21:37;;;;;;;31.40;29.30;;;;;;;7.71;100.00;101033.75;5076563;28;20102;-68
2024/03/18 01:24:05;;;;;;;35.35;33.25;;;;;;;7.54;100.00;101025.16;5076088;28;20055;-68
2024/03/18 01:26:34;;;;;;;36.28;34.20;;;;;;;7.58;100.00;101020.31;5074297;28;20481;-68
2024/03/18 01:29:01;;;;;;;33.20;31.30;;;;;;;7.54;100.00;101024.31;5070214;28;20078;-68
2024/03/18 01:31:28;;;;;;;29.75;27.95;;;;;;;7.73;100.00;101023.00;5085079;28;20084;-68
2024/03/18 01:33:55;;;;;;;31.52;29.63;;;;;;;7.80;100.00;101016.78;5083779;28;20103;-68
2024/03/18 01:36:22;;;;;;;33.83;31.63;;;;;;;7.74;100.00;101020.16;5078612;28;20049;-68
2024/03/18 01:38:49;;;;;;;31.35;29.35;;;;;;;7.53;100.00;101017.38;5075180;28;20120;-68
2024/03/18 01:41:17;;;;;;;30.20;28.20;;;;;;;7.87;100.00;101019.56;5080115;28;20132;-69
2024/03/18 01:43:45;;;;;;;30.40;28.40;;;;;;;7.78;100.00;101016.16;5079786;28;20057;-71
2024/03/18 01:46:17;;;;;;;30.40;28.50;;;;;;;7.60;100.00;101020.97;5086724;28;20059;-68
2024/03/18 01:48:45;;;;;;;32.45;30.45;;;;;;;8.21;100.00;101020.84;5078384;28;20052;-68
2024/03/18 01:51:13;;;;;;;30.35;28.45;;;;;;;8.13;100.00;101023.59;5085071;28;20560;-68
2024/03/18 01:53:40;;;;;;;28.55;26.80;;;;;;;8.02;100.00;101030.97;5072067;28;20566;-68
2024/03/18 01:56:10;;;;;;;29.95;28.05;;;;;;;8.43;100.00;101037.66;5078473;28;20117;-68
2024/03/18 01:58:38;;;;;;;28.48;26.67;;;;;;;9.07;100.00;101035.13;5083866;28;20062;-69
2024/03/18 02:01:07;;;;;;;28.55;26.70;;;;;;;8.20;100.00;101025.31;5087214;28;20048;-70
2024/03/18 02:03:35;;;;;;;30.92;29.02;;;;;;;9.38;100.00;101029.56;5080150;28;20064;-69
2024/03/18 02:06:02;;;;;;;31.15;29.15;;;;;;;8.45;100.00;101033.00;5077830;28;20409;-69
2024/03/18 02:08:30;;;;;;;32.05;29.95;;;;;;;7.91;100.00;101033.25;5074227;28;20055;-69
2024/03/18 02:10:57;;;;;;;32.42;30.42;;;;;;;8.17;100.00;101031.00;5072849;28;20117;-69
2024/03/18 02:13:24;;;;;;;33.70;31.50;;;;;;;7.98;100.00;101032.31;5076526;28;20120;-69
2024/03/18 02:15:51;;;;;;;32.00;30.00;;;;;;;8.45;100.00;101027.72;5085953;28;20055;-69
2024/03/18 02:18:20;;;;;;;30.50;28.50;;;;;;;8.77;100.00;101037.06;5077407;28;20060;-69
2024/03/18 02:20:47;;;;;;;34.17;31.88;;;;;;;7.84;100.00;101041.06;5066551;28;20589;-69
2024/03/18 02:23:15;;;;;;;31.60;29.50;;;;;;;8.58;100.00;101041.09;5074320;28;20532;-68
2024/03/18 02:25:42;;;;;;;32.13;30.05;;;;;;;7.70;100.00;101028.63;5085485;28;20063;-70
2024/03/18 02:28:10;;;;;;;32.03;30.13;;;;;;;7.89;100.00;101029.94;5079450;28;20045;-70
2024/03/18 02:30:37;;;;;;;32.88;30.98;;;;;;;8.69;100.00;101030.06;5067327;28;20056;-70
2024/03/18 02:33:05;;;;;;;38.20;36.00;;;;;;;7.57;100.00;101018.69;5081495;28;20268;-70
2024/03/18 02:35:32;;;;;;;32.53;30.70;;;;;;;8.12;100.00;101022.75;5068534;28;20056;-69
2024/03/18 02:37:59;;;;;;;34.00;32.00;;;;;;;7.74;100.00;101022.81;5080544;28;20488;-70
2024/03/18 02:40:28;;;;;;;32.10;30.20;;;;;;;7.88;100.00;101025.66;5082678;28;20568;-72
2024/03/18 02:42:55;;;;;;;33.47;31.52;;;;;;;7.82;100.00;101018.44;5083337;28;20193;-69
2024/03/18 02:45:25;;;;;;;34.63;32.67;;;;;;;7.54;100.00;101030.44;5083302;28;20500;-69
2024/03/18 02:47:55;;;;;;;32.60;30.70;;;;;;;7.51;100.00;101022.03;5085292;28;20048;-71
2024/03/18 02:50:22;;;;;;;34.25;32.35;;;;;;;7.58;100.00;101025.59;5085122;28;20481;-70
2024/03/18 02:52:49;;;;;;;29.85;28.15;;;;;;;8.04;100.00;101025.50;5084111;28;20679;-68
2024/03/18 02:55:16;;;;;;;31.88;30.08;;;;;;;7.52;100.00;101019.19;5068960;28;20087;-68
2024/03/18 02:57:45;;;;;;;31.77;30.05;;;;;;;8.85;100.00;101026.34;5074141;28;20052;-68
2024/03/18 03:00:13;;;;;;;30.48;28.77;;;;;;;8.63;100.00;101028.16;5070843;28;20884;-69
2024/03/18 03:02:40;;;;;;;33.65;31.75;;;;;;;7.31;100.00;101030.44;5077216;28;20044;-70
2024/03/18 03:05:09;;;;;;;34.70;32.40;;;;;;;8.15;100.00;101016.28;5085693;28;20117;-69
2024/03/18 03:07:35;;;;;;;33.88;32.00;;;;;;;7.93;100.00;101020.66;5078901;28;20056;-68
2024/03/18 03:10:03;;;;;;;33.33;31.52;;;;;;;7.37;100.00;101028.91;5078947;28;20164;-69
2024/03/18 03:12:30;;;;;;;32.05;30.35;;;;;;;8.58;100.00;101022.56;5066414;28;20500;-68
2024/03/18 03:15:00;;;;;;;37.20;35.10;;;;;;;7.80;100.00;101030.00;5081052;28;20066;-70
2024/03/18 03:17:27;;;;;;;40.20;37.92;;;;;;;7.94;100.00;101033.69;5079897;28;20079;-70
2024/03/18 03:19:54;;;;;;;30.45;28.75;;;;;;;8.75;100.00;101031.13;5075389;28;20513;-70
2024/03/18 03:22:24;;;;;;;32.50;30.65;;;;;;;7.74;100.00;101036.03;5079384;28;20059;-70
2024/03/18 03:24:51;;;;;;;34.65;32.85;;;;;;;7.80;100.00;101031.84;5076372;28;20049;-69
2024/03/18 03:27:19;;;;;;;34.90;32.95;;;;;;;8.77;100.00;101036.25;5082176;28;20535;-68
2024/03/18 03:29:46;;;;;;;32.00;30.20;;;;;;;8.29;100.00;101038.44;5069899;28;20089;-68
2024/03/18 03:32:16;;;;;;;39.42;37.22;;;;;;;9.45;100.00;101042.03;5075650;28;20048;-68
2024/03/18 03:34:43;;;;;;;36.85;34.85;;;;;;;8.27;100.00;101036.00;5078845;28;20058;-68
2024/03/18 03:37:10;;;;;;;35.85;33.95;;;;;;;8.46;100.00;101029.34;5083822;28;20105;-71
2024/03/18 03:39:37;;;;;;;32.65;30.77;;;;;;;7.73;100.00;101034.38;5076857;28;20055;-69
2024/03/18 03:42:05;;;;;;;31.17;29.48;;;;;;;7.61;100.00;101032.34;5069131;28;20666;-71
2024/03/18 03:44:32;;;;;;;36.72;34.72;;;;;;;7.45;100.00;101028.84;5078893;28;20121;-69
2024/03/18 03:47:00;;;;;;;33.90;32.10;;;;;;;6.99;100.00;101026.22;5081897;28;20461;-69
2024/03/18 03:49:29;;;;;;;31.20;29.33;;;;;;;8.31;100.00;101028.50;5077874;28;20047;-70
2024/03/18 03:51:56;;;;;;;31.70;29.70;;;;;;;7.16;100.00;101028.75;5079013;28;20055;-69
2024/03/18 03:54:27;;;;;;;34.25;32.25;;;;;;;7.24;100.00;101031.34;5075355;28;20076;-69
2024/03/18 03:56:54;;;;;;;31.45;29.50;;;;;;;7.78;100.00;101034.69;5081466;28;20056;-69
2024/03/18 03:59:21;;;;;;;33.22;31.05;;;;;;;7.31;100.00;101033.06;5076323;28;20106;-71
2024/03/18 04:01:48;;;;;;;28.40;26.60;;;;;;;8.44;100.00;101026.91;5078711;28;20110;-70
2024/03/18 04:04:15;;;;;;;30.60;28.80;;;;;;;8.37;100.00;101035.72;5074262;28;20057;-71
2024/03/18 04:06:44;;;;;;;32.30;30.50;;;;;;;7.62;100.00;101036.63;5080082;28;20823;-69
2024/03/18 04:09:11;;;;;;;30.42;28.63;;;;;;;7.44;100.00;101039.59;5070496;28;20052;-69
2024/03/18 04:11:39;;;;;;;29.40;27.70;;;;;;;8.84;100.00;101035.31;5081427;28;20056;-69
2024/03/18 04:14:06;;;;;;;28.20;26.50;;;;;;;7.05;100.00;101045.81;5081307;28;20059;-69
2024/03/18 04:16:33;;;;;;;27.17;25.58;;;;;;;7.45;100.00;101044.72;5082593;28;20172;-70
2024/03/18 04:19:00;;;;;;;30.35;28.55;;;;;;;7.02;100.00;101048.78;5075155;28;20501;-69
2024/03/18 04:21:29;;;;;;;31.80;29.80;;;;;;;6.70;100.00;101052.44;5078037;28;20047;-69
2024/03/18 04:23:58;;;;;;;32.78;30.77;;;;;;;7.14;100.00;101065.91;5076735;28;20456;-69
2024/03/18 04:26:25;;;;;;;32.35;30.35;;;;;;;10.35;100.00;101069.66;5072982;28;20066;-69
2024/03/18 04:28:53;;;;;;;30.60;28.60;;;;;;;7.48;100.00;101065.50;5074962;28;20060;-69
2024/03/18 04:31:20;;;;;;;38.83;36.38;;;;;;;6.89;100.00;101065.22;5075490;28;20052;-69
2024/03/18 04:33:48;;;;;;;32.42;30.38;;;;;;;6.18;100.00;101070.44;5080424;28;20055;-69
2024/03/18 04:36:15;;;;;;;33.17;31.08;;;;;;;6.75;100.00;101073.88;5086857;28;20124;-69
2024/03/18 04:38:42;;;;;;;31.20;29.30;;;;;;;6.21;100.00;101082.47;5083268;28;20044;-69
2024/03/18 04:41:11;;;;;;;28.23;26.52;;;;;;;9.53;100.00;101079.88;5079818;28;20125;-69
2024/03/18 04:43:40;;;;;;;25.30;23.80;;;;;;;7.10;100.00;101073.34;5075010;28;20044;-69
2024/03/18 04:46:07;;;;;;;26.77;25.08;;;;;;;7.88;100.00;101076.72;5086578;28;20071;-69
2024/03/18 04:48:34;;;;;;;27.50;25.80;;;;;;;6.15;100.00;101076.03;5085713;28;20052;-69
2024/03/18 04:51:01;;;;;;;26.52;24.73;;;;;;;6.67;100.00;101087.09;5077474;28;20110;-69
2024/03/18 04:53:29;;;;;;;26.00;24.33;;;;;;;7.47;100.00;101082.34;5075475;28;20091;-70
2024/03/18 04:55:56;;;;;;;25.33;23.83;;;;;;;7.61;100.00;101082.59;5082217;28;20105;-71
2024/03/18 04:58:28;;;;;;;27.50;25.80;;;;;;;8.24;100.00;101078.72;5084643;28;20048;-69
2024/03/18 05:00:55;;;;;;;26.90;25.20;;;;;;;6.07;100.00;101091.06;5082707;28;20060;-69
2024/03/18 05:03:22;;;;;;;27.08;25.38;;;;;;;5.92;100.00;101090.88;5079088;28;20040;-69
2024/03/18 05:05:49;;;;;;;26.73;24.92;;;;;;;5.83;100.00;101082.13;5078177;28;20187;-69
2024/03/18 05:08:16;;;;;;;25.92;24.42;;;;;;;5.66;100.00;101094.50;5084646;28;20056;-68
2024/03/18 05:10:43;;;;;;;25.65;24.15;;;;;;;6.00;100.00;101092.72;5079318;28;20053;-69
2024/03/18 05:13:10;;;;;;;27.05;25.45;;;;;;;5.94;100.00;101088.94;5085689;28;20097;-69
2024/03/18 05:15:39;;;;;;;28.67;26.77;;;;;;;5.88;100.00;101081.66;5084830;28;20136;-69
2024/03/18 05:18:06;;;;;;;26.75;25.05;;;;;;;6.02;100.00;101081.03;5081949;28;20052;-69
2024/03/18 05:20:33;;;;;;;26.60;25.20;;;;;;;7.20;100.00;101091.63;5083589;28;20585;-69
2024/03/18 05:23:00;;;;;;;26.50;24.58;;;;;;;5.81;100.00;101094.69;5084089;28;20112;-69
2024/03/18 05:25:27;;;;;;;27.65;25.95;;;;;;;5.86;100.00;101096.81;5076639;28;20044;-70
2024/03/18 05:27:54;;;;;;;27.25;25.65;;;;;;;5.95;100.00;101094.03;5083687;28;20056;-69
2024/03/18 05:30:22;;;;;;;27.90;26.30;;;;;;;5.88;100.00;101102.75;5082100;28;20110;-69
2024/03/18 05:32:50;;;;;;;28.00;26.50;;;;;;;6.22;100.00;101093.84;5084853;28;20477;-69
2024/03/18 05:35:17;;;;;;;25.92;24.42;;;;;;;6.05;100.00;101095.66;5086169;28;20060;-69
2024/03/18 05:37:44;;;;;;;28.88;27.05;;;;;;;6.29;100.00;101092.16;5082475;28;20052;-69
2024/03/18 05:40:12;;;;;;;26.00;24.50;;;;;;;6.37;100.00;101100.88;5087718;28;20062;-69
2024/03/18 05:42:39;;;;;;;26.85;25.35;;;;;;;6.20;100.00;101099.25;5086724;28;20056;-69
2024/03/18 05:45:06;;;;;;;27.83;26.25;;;;;;;6.40;100.00;101097.91;5084011;28;20109;-69
2024/03/18 05:47:33;;;;;;;28.08;26.40;;;;;;;6.53;100.00;101101.81;5086586;28;20056;-69
2024/03/18 05:50:03;;;;;;;28.25;26.45;;;;;;;6.58;100.00;101110.88;5085292;28;20773;-69
2024/03/18 05:52:30;;;;;;;26.65;25.05;;;;;;;6.66;100.00;101110.03;5082887;28;20075;-71
2024/03/18 05:54:58;;;;;;;29.33;27.63;;;;;;;9.42;100.00;101106.06;5086940;28;20137;-70
2024/03/18 05:57:25;;;;;;;28.55;26.90;;;;;;;7.03;100.00;101101.47;5076721;28;20056;-71
2024/03/18 05:59:53;;;;;;;29.98;27.98;;;;;;;6.85;100.00;101100.88;5073792;28;20523;-71
2024/03/18 06:02:20;;;;;;;30.85;28.95;;;;;;;6.76;100.00;101102.72;5087138;28;20657;-70
2024/03/18 06:04:47;;;;;;;29.55;27.73;;;;;;;6.70;100.00;101106.06;5082416;28;20056;-70
2024/03/18 06:07:19;;;;;;;29.42;27.52;;;;;;;7.25;100.00;101105.13;5085762;28;20086;-70
2024/03/18 06:09:46;;;;;;;;;;;;;;;7.08;100.00;101101.78;5073463;28;20364;-70
2024/03/18 06:12:13;;;;;;;30.23;28.58;;;;;;;6.97;100.00;101104.78;5078045;28;19977;-70
2024/03/18 06:14:40;;;;;;;28.88;27.17;;;;;;;7.54;100.00;101101.81;5082452;28;20056;-70
2024/03/18 06:17:07;;;;;;;32.25;30.35;;;;;;;8.62;100.00;101095.34;5081053;28;20893;-71
2024/03/18 06:19:35;;;;;;;30.75;28.85;;;;;;;7.14;100.00;101091.47;5080746;28;20139;-70
2024/03/18 06:22:05;;;;;;;30.15;28.25;;;;;;;7.51;100.00;101091.59;5086598;28;20044;-71
2024/03/18 06:27:15;;;;;;;31.35;29.45;;;;;;;7.58;100.00;101097.78;5080660;28;20056;-70
2024/03/18 06:29:42;;;;;;;29.60;27.80;;;;;;;8.36;100.00;101087.84;5081702;28;20052;-69
2024/03/18 06:32:10;;;;;;;28.13;26.42;;;;;;;7.31;100.00;101093.84;5082487;28;20059;-70
2024/03/18 06:34:37;;;;;;;29.05;27.35;;;;;;;7.29;100.00;101084.44;5068996;28;20138;-70
2024/03/18 06:37:04;;;;;;;28.25;26.45;;;;;;;7.28;100.00;101091.56;5083199;28;20433;-69
2024/03/18 06:39:31;;;;;;;29.42;27.33;;;;;;;7.83;100.00;101087.03;5069339;28;20053;-70
2024/03/18 06:42:00;;;;;;;30.50;28.60;;;;;;;7.96;100.00;101089.06;5084465;28;20104;-69
2024/03/18 06:44:27;;;;;;;30.35;28.45;;;;;;;7.36;100.00;101089.88;5083156;28;20623;-70
2024/03/18 06:46:56;;;;;;;31.73;29.77;;;;;;;7.76;100.00;101089.56;5086724;28;20723;-69
2024/03/18 06:49:23;;;;;;;30.88;28.88;;;;;;;8.03;100.00;101084.69;5086223;28;20203;-70
2024/03/18 06:51:51;;;;;;;29.02;27.23;;;;;;;7.24;100.00;101089.47;5087238;28;20052;-71
2024/03/18 06:54:18;;;;;;;28.45;26.65;;;;;;;7.68;100.00;101083.50;5082866;28;20055;-70
2024/03/18 06:56:45;;;;;;;29.70;27.80;;;;;;;7.78;100.00;101087.56;5087613;28;20055;-70
2024/03/18 06:59:14;;;;;;;29.92;27.92;;;;;;;8.56;100.00;101089.94;5084932;28;20044;-70
2024/03/18 07:01:41;;;;;;;29.23;27.42;;;;;;;8.25;100.00;101086.44;5082160;28;20039;-70
2024/03/18 07:04:09;;;;;;;31.20;29.23;;;;;;;8.16;100.00;101084.06;5085003;28;20052;-70
2024/03/18 07:06:36;;;;;;;31.73;29.83;;;;;;;8.85;100.00;101094.41;5086701;28;20040;-70
2024/03/18 07:09:03;;;;;;;31.98;30.08;;;;;;;8.79;100.00;101090.66;5086707;28;20830;-70
2024/03/18 07:11:30;;;;;;;31.30;29.50;;;;;;;8.84;100.00;101092.78;5082405;28;20048;-70
2024/03/18 07:13:57;;;;;;;32.72;30.73;;;;;;;8.36;100.00;101093.13;5081264;28;20438;-69
2024/03/18 07:16:25;;;;;;;31.98;30.08;;;;;;;8.37;100.00;101096.59;5082434;28;20047;-68
2024/03/18 07:18:53;;;;;;;31.35;29.35;;;;;;;8.94;100.00;101085.34;5084384;28;20052;-69
2024/03/18 07:21:21;;;;;;;31.73;29.73;;;;;;;9.69;100.00;101097.34;5082119;28;20445;-72
2024/03/18 07:23:48;;;;;;;33.70;31.60;;;;;;;9.52;100.00;101096.75;5082142;28;20077;-69
2024/03/18 07:26:16;;;;;;;33.22;31.23;;;;;;;8.81;100.00;101086.03;5085236;28;20052;-72
2024/03/18 07:28:43;;;;;;;32.13;30.02;;;;;;;9.37;100.00;101088.06;5086448;28;20052;-72
2024/03/18 07:31:13;;;;;;;29.58;27.67;;;;;;;9.86;100.00;101089.91;5085644;28;20118;-70
2024/03/18 07:33:42;;;;;;;29.98;28.00;;;;;;;8.56;100.00;101080.19;5073880;28;20057;-72
2024/03/18 07:36:09;;;;;;;32.28;30.33;;;;;;;10.03;100.00;101087.81;5082387;28;20040;-71
2024/03/18 07:38:36;;;;;;;33.22;31.33;;;;;;;10.00;100.00;101089.00;5087540;28;20069;-69
2024/03/18 07:41:04;;;;;;;33.35;31.45;;;;;;;10.55;100.00;101084.69;5081111;28;20047;-69
2024/03/18 07:43:31;;;;;;;35.00;32.63;;;;;;;10.57;100.00;101081.03;5078163;28;20121;-70
2024/03/18 07:45:58;;;;;;;35.08;32.88;;;;;;;9.15;100.00;101080.09;5085958;28;20515;-73
2024/03/18 07:48:25;;;;;;;32.78;30.75;;;;;;;9.84;100.00;101084.00;5087813;28;20082;-70
2024/03/18 07:51:00;;;;;;;33.70;31.70;;;;;;;9.31;100.00;101088.81;5082927;28;20832;-70
2024/03/18 07:53:28;;;;;;;32.25;30.25;;;;;;;10.51;100.00;101086.09;5075755;28;20040;-73
2024/03/18 07:56:01;;;;;;;31.23;29.33;;;;;;;9.83;100.00;101083.19;5088225;28;20143;-73
2024/03/18 07:58:29;;;;;;;32.10;30.00;;;;;;;10.72;100.00;101073.75;5083886;28;20048;-69
2024/03/18 08:00:56;;;;;;;32.17;30.05;;;;;;;10.88;100.00;101065.41;5079321;28;20475;-69
2024/03/18 08:03:23;;;;;;;33.00;31.00;;;;;;;10.76;100.00;101059.84;5085205;28;20131;-71
2024/03/18 08:05:53;;;;;;;31.15;29.35;;;;;;;11.28;100.00;101067.34;5078381;28;20131;-70
2024/03/18 08:08:21;;;;;;;32.88;30.98;;;;;;;9.11;100.00;101070.88;5071322;28;20060;-70
2024/03/18 08:10:48;;;;;;;38.58;36.47;;;;;;;11.93;100.00;101072.97;5081903;28;20056;-69
2024/03/18 08:13:16;;;;;;;39.28;37.08;;;;;;;12.56;100.00;101066.06;5086398;28;20083;-69
2024/03/18 08:15:47;;;;;;;35.05;33.05;;;;;;;11.52;100.00;101061.44;5084012;28;20055;-70
2024/03/18 08:18:14;;;;;;;34.38;32.38;;;;;;;10.70;100.00;101065.13;5085440;28;20052;-71
2024/03/18 08:20:41;;;;;;;35.90;33.80;;;;;;;10.76;100.00;101065.16;5073955;28;20048;-73
2024/03/18 08:23:11;;;;;;;38.28;36.17;;;;;;;13.21;100.00;101059.81;5087621;28;20056;-72
2024/03/18 08:25:39;;;;;;;35.17;33.15;;;;;;;12.25;100.00;101056.09;5081045;28;20059;-72
2024/03/18 08:28:07;;;;;;;33.20;31.20;;;;;;;12.92;100.00;101054.03;5090322;28;20051;-72
2024/03/18 08:30:35;;;;;;;37.88;35.67;;;;;;;13.21;100.00;101054.47;5093727;28;20052;-72
2024/03/18 08:33:05;;;;;;;37.65;35.45;;;;;;;13.59;100.00;101051.78;5087315;28;20083;-72
2024/03/18 08:35:32;;;;;;;40.63;38.22;;;;;;;10.96;100.00;101045.81;5084622;28;20097;-71
2024/03/18 08:37:59;;;;;;;36.75;34.17;;;;;;;12.82;100.00;101043.81;5078967;28;20052;-72
2024/03/18 08:40:27;;;;;;;34.63;32.53;;;;;;;13.06;100.00;101054.75;5091166;28;20109;-72
2024/03/18 08:42:55;;;;;;;36.88;34.67;;;;;;;12.94;100.00;101046.63;5087600;28;20048;-73
2024/03/18 08:45:22;;;;;;;36.25;33.85;;;;;;;13.54;100.00;101048.13;5091561;28;20439;-72
2024/03/18 08:47:50;;;;;;;34.95;32.60;;;;;;;13.81;100.00;101043.38;5090964;28;20105;-71
2024/03/18 08:50:17;;;;;;;34.55;32.25;;;;;;;14.03;100.00;101039.25;5082723;28;20063;-72
2024/03/18 08:52:44;;;;;;;35.20;32.85;;;;;;;12.89;100.00;101030.47;5082476;28;20051;-72
2024/03/18 08:55:11;;;;;;;35.30;33.10;;;;;;;13.80;100.00;101033.72;5087539;28;20081;-72
2024/03/18 08:57:38;;;;;;;39.83;37.58;;;;;;;13.90;100.00;101034.06;5084567;28;20131;-72
2024/03/18 09:00:10;;;;;;;38.15;35.75;;;;;;;14.32;100.00;101026.22;5077452;28;20041;-72
2024/03/18 09:02:38;;;;;;;35.33;33.13;;;;;;;13.20;100.00;101020.84;5088128;28;20056;-72
2024/03/18 09:05:07;;;;;;;36.88;34.50;;;;;;;13.36;100.00;101022.19;5088571;28;20127;-72
2024/03/18 09:07:34;;;;;;;35.10;32.90;;;;;;;14.61;100.00;101012.13;5085103;28;20804;-72
2024/03/18 09:10:01;;;;;;;35.00;32.80;;;;;;;12.96;100.00;101019.75;5089829;28;20047;-72
2024/03/18 09:12:28;;;;;;;36.30;33.90;;;;;;;12.09;100.00;101013.94;5084306;28;20121;-71
2024/03/18 09:14:56;;;;;;;37.03;34.72;;;;;;;12.58;100.00;101015.22;5085308;28;20478;-73
2024/03/18 09:17:25;;;;;;;36.75;34.45;;;;;;;14.66;100.00;101004.22;5082113;28;20052;-72
2024/03/18 09:19:53;;;;;;;37.67;35.38;;;;;;;15.39;100.00;101007.69;5085368;28;20058;-70
2024/03/18 09:22:20;;;;;;;36.78;34.38;;;;;;;15.50;97.23;100998.88;5082186;28;20507;-70
2024/03/18 09:24:47;;;;;;;37.80;35.40;;;;;;;15.16;100.00;101002.31;5083766;28;20055;-70
2024/03/18 09:27:14;;;;;;;36.30;34.08;;;;;;;14.19;100.00;100993.28;5087494;28;20052;-69
2024/03/18 09:29:41;;;;;;;37.33;35.03;;;;;;;14.12;100.00;100992.53;5085788;28;20052;-70
2024/03/18 09:32:09;;;;;;;39.42;37.13;;;;;;;16.24;96.43;100990.34;5081080;28;20052;-71
2024/03/18 09:34:38;;;;;;;39.95;37.45;;;;;;;14.27;91.79;100986.00;5086523;28;20059;-69
2024/03/18 09:37:05;;;;;;;49.72;46.85;;;;;;;16.65;100.00;100985.81;5080416;28;20117;-68
2024/03/18 09:39:32;;;;;;;41.70;39.30;;;;;;;17.04;100.00;100984.13;5082392;28;20059;-68
2024/03/18 09:42:00;;;;;;;36.22;33.92;;;;;;;13.85;100.00;100977.81;5085160;28;20101;-71
2024/03/18 09:44:27;;;;;;;39.20;36.70;;;;;;;13.48;100.00;100980.44;5083820;28;20048;-72
2024/03/18 09:46:56;;;;;;;39.10;36.60;;;;;;;16.61;100.00;100973.91;5089186;28;20102;-72
2024/03/18 09:49:25;;;;;;;42.47;39.88;;;;;;;14.68;100.00;100973.81;5081712;28;20133;-72
2024/03/18 09:51:55;;;;;;;41.67;39.17;;;;;;;14.07;100.00;100970.19;5086722;28;20058;-72
2024/03/18 09:54:22;;;;;;;33.50;31.40;;;;;;;14.38;100.00;100963.88;5079170;28;20055;-70
2024/03/18 09:56:55;;;;;;;37.10;34.70;;;;;;;16.01;87.98;100962.56;5086131;28;20486;-72
2024/03/18 09:59:22;;;;;;;42.97;40.38;;;;;;;14.82;87.39;100962.66;5082696;28;20116;-71
2024/03/18 10:01:49;;;;;;;35.10;32.97;;;;;;;14.99;100.00;100962.03;5080597;28;20061;-71
2024/03/18 10:04:17;;;;;;;35.45;33.35;;;;;;;18.05;95.78;100945.63;5085752;28;20120;-71
2024/03/18 10:06:44;;;;;;;37.10;34.70;;;;;;;16.52;83.94;100944.00;5085876;28;20043;-72
2024/03/18 10:09:15;;;;;;;39.03;36.63;;;;;;;16.70;78.88;100943.81;5087466;28;20059;-72
2024/03/18 10:11:44;;;;;;;45.35;42.65;;;;;;;17.34;95.32;100946.22;5079882;28;20056;-71
2024/03/18 10:14:12;;;;;;;40.67;38.25;;;;;;;17.79;77.94;100941.78;5085795;28;20044;-69
2024/03/18 10:16:39;;;;;;;37.70;35.30;;;;;;;18.30;88.61;100937.84;5083613;28;20751;-69
2024/03/18 10:19:07;;;;;;;39.40;37.00;;;;;;;17.16;68.31;100925.81;5086672;28;20058;-69
2024/03/18 10:21:37;;;;;;;37.22;34.63;;;;;;;16.46;100.00;100935.06;5085908;28;20075;-70
2024/03/18 10:24:06;;;;;;;37.92;35.53;;;;;;;15.94;100.00;100926.22;5079611;28;20052;-70
2024/03/18 10:26:36;;;;;;;37.78;35.08;;;;;;;15.42;100.00;100920.78;5084768;28;20055;-71
2024/03/18 10:29:03;;;;;;;36.42;33.85;;;;;;;15.01;92.17;100920.66;5082277;28;20051;-70
2024/03/18 10:31:37;;;;;;;33.70;31.60;;;;;;;15.78;100.00;100919.75;5084726;28;20141;-71
2024/03/18 10:34:05;;;;;;;40.30;37.70;;;;;;;14.48;100.00;100924.06;5082188;28;20044;-69
2024/03/18 10:36:36;;;;;;;36.22;33.92;;;;;;;14.79;100.00;100928.38;5083097;28;20058;-70
2024/03/18 10:39:08;;;;;;;37.58;35.22;;;;;;;14.86;100.00;100921.09;5087192;28;20043;-69
2024/03/18 10:41:38;;;;;;;43.00;40.30;;;;;;;15.29;100.00;100913.81;5087655;28;20125;-70
2024/03/18 10:44:14;;;;;;;38.28;35.78;;;;;;;16.18;100.00;100914.41;5085824;28;20044;-69
2024/03/18 10:46:42;;;;;;;37.92;35.53;;;;;;;15.01;85.45;100911.81;5079849;28;20767;-69
2024/03/18 10:49:16;;;;;;;40.35;37.65;;;;;;;14.71;100.00;100912.66;5076712;28;20056;-69
2024/03/18 10:51:44;;;;;;;41.08;38.63;;;;;;;16.01;100.00;100900.13;5087877;28;20093;-70
2024/03/18 10:54:14;;;;;;;42.03;39.50;;;;;;;17.44;99.84;100893.75;5080740;28;20051;-71
2024/03/18 10:56:44;;;;;;;51.10;48.10;;;;;;;17.06;87.19;100901.50;5083749;28;20048;-70
2024/03/18 10:59:13;;;;;;;50.83;47.72;;;;;;;15.95;92.34;100891.19;5086287;28;20056;-70
2024/03/18 11:01:40;;;;;;;49.78;46.88;;;;;;;17.01;100.00;100890.69;5085963;28;20112;-69
2024/03/18 11:04:19;;;;;;;42.08;39.47;;;;;;;16.88;100.00;100894.53;5068965;28;20084;-69
2024/03/18 11:06:48;;;;;;;42.15;39.45;;;;;;;17.31;100.00;100897.59;5082332;28;20040;-69
2024/03/18 11:09:18;;;;;;;44.67;41.53;;;;;;;17.84;100.00;100878.19;5068864;28;20417;-71
2024/03/18 11:11:46;;;;;;;41.88;39.28;;;;;;;18.72;73.64;100880.72;5077409;28;20036;-69